sensor_id;sensor_type;location;lat;lon;timestamp;temperature;humidity
44763;DHT22;30483;49.576;6.036;2024-03-23T04:30:52;16.20;99.90
44763;DHT22;30483;49.576;6.036;2024-03-23T04:33:30;16.20;99.90
44763;DHT22;30483;49.576;6.036;2024-03-23T04:36:07;16.10;99.90
44763;DHT22;30483;49.576;6.036;2024-03-23T04:38:37;16.20;99.90
44763;DHT22;30483;49.576;6.036;2024-03-23T04:41:19;16.10;99.90
44763;DHT22;30483;49.576;6.036;2024-03-23T04:47:27;16.10;99.90
44763;DHT22;30483;49.576;6.036;2024-03-23T04:51:01;16.10;99.90
44763;DHT22;30483;49.576;6.036;2024-03-23T04:53:29;16.10;99.90
44763;DHT22;30483;49.576;6.036;2024-03-23T04:56:00;16.10;99.90
44763;DHT22;30483;49.576;6.036;2024-03-23T04:58:36;16.10;99.90
44763;DHT22;30483;49.576;6.036;2024-03-23T05:01:12;16.10;99.90
44763;DHT22;30483;49.576;6.036;2024-03-23T05:03:41;16.10;99.90
44763;DHT22;30483;49.576;6.036;2024-03-23T05:06:15;16.10;99.90
44763;DHT22;30483;49.576;6.036;2024-03-23T05:08:53;16.20;99.90
44763;DHT22;30483;49.576;6.036;2024-03-23T05:11:19;16.10;99.90
44763;DHT22;30483;49.576;6.036;2024-03-23T05:13:46;16.10;99.90
44763;DHT22;30483;49.576;6.036;2024-03-23T05:16:12;16.10;99.90
44763;DHT22;30483;49.576;6.036;2024-03-23T05:18:37;16.10;99.90
44763;DHT22;30483;49.576;6.036;2024-03-23T05:21:03;16.10;99.90
44763;DHT22;30483;49.576;6.036;2024-03-23T05:23:29;16.20;99.90
44763;DHT22;30483;49.576;6.036;2024-03-23T05:25:55;16.10;99.90
44763;DHT22;30483;49.576;6.036;2024-03-23T05:28:21;16.10;99.90
44763;DHT22;30483;49.576;6.036;2024-03-23T05:30:51;16.10;99.90
44763;DHT22;30483;49.576;6.036;2024-03-23T05:33:21;16.10;99.90
44763;DHT22;30483;49.576;6.036;2024-03-23T05:35:47;16.20;99.90
44763;DHT22;30483;49.576;6.036;2024-03-23T05:38:21;15.80;99.90
44763;DHT22;30483;49.576;6.036;2024-03-23T05:40:56;15.40;99.90
44763;DHT22;30483;49.576;6.036;2024-03-23T05:43:23;15.40;99.90
44763;DHT22;30483;49.576;6.036;2024-03-23T05:45:58;15.50;99.90
44763;DHT22;30483;49.576;6.036;2024-03-23T05:48:25;15.50;99.90
44763;DHT22;30483;49.576;6.036;2024-03-23T05:50:51;15.60;99.90
44763;DHT22;30483;49.576;6.036;2024-03-23T05:53:18;15.70;99.90
44763;DHT22;30483;49.576;6.036;2024-03-23T05:55:45;15.70;99.90
44763;DHT22;30483;49.576;6.036;2024-03-23T05:58:14;15.80;99.90
44763;DHT22;30483;49.576;6.036;2024-03-23T06:00:40;15.80;99.90
44763;DHT22;30483;49.576;6.036;2024-03-23T06:03:06;15.90;99.90
44763;DHT22;30483;49.576;6.036;2024-03-23T06:05:32;15.90;99.90
44763;DHT22;30483;49.576;6.036;2024-03-23T06:07:57;15.90;99.90
44763;DHT22;30483;49.576;6.036;2024-03-23T06:10:23;15.90;99.90
44763;DHT22;30483;49.576;6.036;2024-03-23T06:12:48;16.00;99.90
44763;DHT22;30483;49.576;6.036;2024-03-23T06:15:20;16.00;99.90
44763;DHT22;30483;49.576;6.036;2024-03-23T06:17:46;16.00;99.90
44763;DHT22;30483;49.576;6.036;2024-03-23T06:20:12;16.00;99.90
44763;DHT22;30483;49.576;6.036;2024-03-23T06:22:38;16.00;99.90
44763;DHT22;30483;49.576;6.036;2024-03-23T06:25:04;16.00;99.90
44763;DHT22;30483;49.576;6.036;2024-03-23T06:27:30;16.00;99.90
44763;DHT22;30483;49.576;6.036;2024-03-23T06:29:58;16.00;99.90
44763;DHT22;30483;49.576;6.036;2024-03-23T06:32:23;16.00;99.90
44763;DHT22;30483;49.576;6.036;2024-03-23T06:34:49;16.00;99.90
44763;DHT22;30483;49.576;6.036;2024-03-23T06:37:14;16.00;99.90
44763;DHT22;30483;49.576;6.036;2024-03-23T06:39:40;16.10;99.90
44763;DHT22;30483;49.576;6.036;2024-03-23T06:42:06;16.10;99.90
44763;DHT22;30483;49.576;6.036;2024-03-23T06:44:33;16.10;99.90
44763;DHT22;30483;49.576;6.036;2024-03-23T06:46:59;16.10;99.90
44763;DHT22;30483;49.576;6.036;2024-03-23T06:49:24;16.10;99.90
44763;DHT22;30483;49.576;6.036;2024-03-23T06:51:50;16.10;99.90
44763;DHT22;30483;49.576;6.036;2024-03-23T06:54:19;16.10;99.90
44763;DHT22;30483;49.576;6.036;2024-03-23T06:56:45;16.10;99.90
44763;DHT22;30483;49.576;6.036;2024-03-23T06:59:11;16.10;99.90
44763;DHT22;30483;49.576;6.036;2024-03-23T07:01:36;16.10;99.90
44763;DHT22;30483;49.576;6.036;2024-03-23T07:04:02;16.10;99.90
44763;DHT22;30483;49.576;6.036;2024-03-23T07:06:29;16.10;99.90
44763;DHT22;30483;49.576;6.036;2024-03-23T07:08:55;16.10;99.90
44763;DHT22;30483;49.576;6.036;2024-03-23T07:11:21;16.10;99.90
44763;DHT22;30483;49.576;6.036;2024-03-23T07:13:50;16.10;99.90
44763;DHT22;30483;49.576;6.036;2024-03-23T07:16:16;16.10;99.90
44763;DHT22;30483;49.576;6.036;2024-03-23T07:18:42;16.10;99.90
44763;DHT22;30483;49.576;6.036;2024-03-23T07:21:08;16.00;99.90
44763;DHT22;30483;49.576;6.036;2024-03-23T07:23:34;16.10;99.90
44763;DHT22;30483;49.576;6.036;2024-03-23T07:26:04;16.10;99.90
44763;DHT22;30483;49.576;6.036;2024-03-23T07:28:33;16.00;99.90
44763;DHT22;30483;49.576;6.036;2024-03-23T07:31:14;16.00;99.90
44763;DHT22;30483;49.576;6.036;2024-03-23T07:33:53;16.00;99.90
44763;DHT22;30483;49.576;6.036;2024-03-23T07:36:31;16.00;99.90
44763;DHT22;30483;49.576;6.036;2024-03-23T07:39:18;16.00;99.90
44763;DHT22;30483;49.576;6.036;2024-03-23T07:41:44;16.00;99.90
44763;DHT22;30483;49.576;6.036;2024-03-23T07:44:10;15.90;99.90
44763;DHT22;30483;49.576;6.036;2024-03-23T07:46:36;15.90;99.90
44763;DHT22;30483;49.576;6.036;2024-03-23T07:49:04;15.90;99.90
44763;DHT22;30483;49.576;6.036;2024-03-23T07:51:30;15.70;99.90
44763;DHT22;30483;49.576;6.036;2024-03-23T07:53:55;15.70;99.90
44763;DHT22;30483;49.576;6.036;2024-03-23T07:56:21;15.30;99.90
44763;DHT22;30483;49.576;6.036;2024-03-23T07:58:49;15.20;99.90
44763;DHT22;30483;49.576;6.036;2024-03-23T08:01:15;14.90;99.90
44763;DHT22;30483;49.576;6.036;2024-03-23T08:03:43;14.90;99.90
44763;DHT22;30483;49.576;6.036;2024-03-23T08:06:13;15.00;99.90
44763;DHT22;30483;49.576;6.036;2024-03-23T08:08:39;15.10;99.90
44763;DHT22;30483;49.576;6.036;2024-03-23T08:11:06;15.20;99.90
44763;DHT22;30483;49.576;6.036;2024-03-23T08:13:32;15.30;99.90
44763;DHT22;30483;49.576;6.036;2024-03-23T08:16:02;15.40;99.90
44763;DHT22;30483;49.576;6.036;2024-03-23T08:18:28;15.40;99.90
44763;DHT22;30483;49.576;6.036;2024-03-23T08:21:00;15.40;99.90
44763;DHT22;30483;49.576;6.036;2024-03-23T08:23:27;15.50;99.90
44763;DHT22;30483;49.576;6.036;2024-03-23T08:25:57;15.50;99.90
44763;DHT22;30483;49.576;6.036;2024-03-23T08:28:24;15.50;99.90
44763;DHT22;30483;49.576;6.036;2024-03-23T08:30:49;15.60;99.90
44763;DHT22;30483;49.576;6.036;2024-03-23T08:33:15;15.60;99.90
44763;DHT22;30483;49.576;6.036;2024-03-23T08:35:41;15.60;99.90
44763;DHT22;30483;49.576;6.036;2024-03-23T08:38:07;15.60;99.90
44763;DHT22;30483;49.576;6.036;2024-03-23T08:40:33;15.60;99.90
44763;DHT22;30483;49.576;6.036;2024-03-23T08:42:58;15.60;99.90
44763;DHT22;30483;49.576;6.036;2024-03-23T08:45:25;15.60;99.90
44763;DHT22;30483;49.576;6.036;2024-03-23T08:47:51;15.70;99.90
44763;DHT22;30483;49.576;6.036;2024-03-23T08:50:17;15.60;99.90
44763;DHT22;30483;49.576;6.036;2024-03-23T08:52:43;15.60;99.90
44763;DHT22;30483;49.576;6.036;2024-03-23T08:55:09;15.60;99.90
44763;DHT22;30483;49.576;6.036;2024-03-23T08:57:35;15.60;99.90
44763;DHT22;30483;49.576;6.036;2024-03-23T09:00:02;15.60;99.90
44763;DHT22;30483;49.576;6.036;2024-03-23T09:02:28;15.60;99.90
44763;DHT22;30483;49.576;6.036;2024-03-23T09:04:53;15.70;99.90
44763;DHT22;30483;49.576;6.036;2024-03-23T09:07:19;15.60;99.90
44763;DHT22;30483;49.576;6.036;2024-03-23T09:09:44;15.60;99.90
44763;DHT22;30483;49.576;6.036;2024-03-23T09:12:10;15.60;99.90
44763;DHT22;30483;49.576;6.036;2024-03-23T09:14:36;15.60;99.90
44763;DHT22;30483;49.576;6.036;2024-03-23T09:17:01;15.60;99.90
44763;DHT22;30483;49.576;6.036;2024-03-23T09:19:28;15.70;99.90
44763;DHT22;30483;49.576;6.036;2024-03-23T09:21:55;15.60;99.90
44763;DHT22;30483;49.576;6.036;2024-03-23T09:24:20;15.60;99.90
44763;DHT22;30483;49.576;6.036;2024-03-23T09:26:46;15.70;99.90
44763;DHT22;30483;49.576;6.036;2024-03-23T09:29:12;15.70;99.90
44763;DHT22;30483;49.576;6.036;2024-03-23T09:31:37;15.70;99.90
44763;DHT22;30483;49.576;6.036;2024-03-23T09:34:04;15.70;99.90
44763;DHT22;30483;49.576;6.036;2024-03-23T09:36:29;15.70;99.90
44763;DHT22;30483;49.576;6.036;2024-03-23T09:38:55;15.70;99.90
44763;DHT22;30483;49.576;6.036;2024-03-23T09:41:21;15.70;99.90
44763;DHT22;30483;49.576;6.036;2024-03-23T09:43:46;15.70;99.90
44763;DHT22;30483;49.576;6.036;2024-03-23T09:46:14;15.70;99.90
44763;DHT22;30483;49.576;6.036;2024-03-23T09:48:41;15.70;99.90
44763;DHT22;30483;49.576;6.036;2024-03-23T09:51:07;15.50;99.90
44763;DHT22;30483;49.576;6.036;2024-03-23T09:53:34;15.60;99.90
44763;DHT22;30483;49.576;6.036;2024-03-23T09:56:00;15.60;99.90
44763;DHT22;30483;49.576;6.036;2024-03-23T09:58:26;15.60;99.90
44763;DHT22;30483;49.576;6.036;2024-03-23T10:00:52;15.60;99.90
44763;DHT22;30483;49.576;6.036;2024-03-23T10:03:17;15.50;99.90
44763;DHT22;30483;49.576;6.036;2024-03-23T10:05:43;15.50;99.90
44763;DHT22;30483;49.576;6.036;2024-03-23T10:10:39;15.40;99.90
44763;DHT22;30483;49.576;6.036;2024-03-23T10:13:05;15.40;99.90
44763;DHT22;30483;49.576;6.036;2024-03-23T10:15:34;15.30;99.90
44763;DHT22;30483;49.576;6.036;2024-03-23T10:18:18;15.30;99.90
44763;DHT22;30483;49.576;6.036;2024-03-23T10:21:09;15.40;99.90
44763;DHT22;30483;49.576;6.036;2024-03-23T10:23:43;15.40;99.90
44763;DHT22;30483;49.576;6.036;2024-03-23T10:26:23;15.40;99.90
44763;DHT22;30483;49.576;6.036;2024-03-23T10:28:56;15.40;99.90
44763;DHT22;30483;49.576;6.036;2024-03-23T10:31:31;15.40;99.90
44763;DHT22;30483;49.576;6.036;2024-03-23T10:33:56;15.40;99.90
44763;DHT22;30483;49.576;6.036;2024-03-23T10:36:23;15.40;99.90
44763;DHT22;30483;49.576;6.036;2024-03-23T10:38:54;15.40;99.90
44763;DHT22;30483;49.576;6.036;2024-03-23T10:41:20;15.40;99.90
44763;DHT22;30483;49.576;6.036;2024-03-23T10:43:46;15.50;99.90
44763;DHT22;30483;49.576;6.036;2024-03-23T10:46:12;15.50;99.90
44763;DHT22;30483;49.576;6.036;2024-03-23T10:48:38;15.50;99.90
44763;DHT22;30483;49.576;6.036;2024-03-23T10:51:08;15.50;99.90
44763;DHT22;30483;49.576;6.036;2024-03-23T10:53:35;15.60;99.90
44763;DHT22;30483;49.576;6.036;2024-03-23T10:56:02;15.60;99.90
44763;DHT22;30483;49.576;6.036;2024-03-23T10:58:33;15.50;99.90
44763;DHT22;30483;49.576;6.036;2024-03-23T11:01:02;15.50;99.90
44763;DHT22;30483;49.576;6.036;2024-03-23T11:03:36;15.60;99.90
44763;DHT22;30483;49.576;6.036;2024-03-23T11:06:05;15.60;99.90
44763;DHT22;30483;49.576;6.036;2024-03-23T11:08:39;15.60;99.90
44763;DHT22;30483;49.576;6.036;2024-03-23T11:11:18;15.60;99.90
44763;DHT22;30483;49.576;6.036;2024-03-23T11:13:47;15.60;99.90
44763;DHT22;30483;49.576;6.036;2024-03-23T11:18:44;15.60;99.90
44763;DHT22;30483;49.576;6.036;2024-03-23T11:21:10;15.60;99.90
44763;DHT22;30483;49.576;6.036;2024-03-23T11:23:36;15.60;99.90
44763;DHT22;30483;49.576;6.036;2024-03-23T11:26:02;15.60;99.90
44763;DHT22;30483;49.576;6.036;2024-03-23T11:28:28;15.60;99.90
44763;DHT22;30483;49.576;6.036;2024-03-23T11:30:53;15.60;99.90
44763;DHT22;30483;49.576;6.036;2024-03-23T11:33:19;15.60;99.90
44763;DHT22;30483;49.576;6.036;2024-03-23T11:35:45;15.60;99.90
44763;DHT22;30483;49.576;6.036;2024-03-23T11:38:15;15.60;99.90
44763;DHT22;30483;49.576;6.036;2024-03-23T11:40:43;15.60;99.90
44763;DHT22;30483;49.576;6.036;2024-03-23T11:43:10;15.60;99.90
44763;DHT22;30483;49.576;6.036;2024-03-23T11:45:55;15.60;99.90
44763;DHT22;30483;49.576;6.036;2024-03-23T11:48:24;15.60;99.90
44763;DHT22;30483;49.576;6.036;2024-03-23T11:57:07;14.70;99.90
44763;DHT22;30483;49.576;6.036;2024-03-23T11:59:41;14.80;99.90
44763;DHT22;30483;49.576;6.036;2024-03-23T12:02:11;14.90;99.90
44763;DHT22;30483;49.576;6.036;2024-03-23T12:04:43;15.00;99.90
44763;DHT22;30483;49.576;6.036;2024-03-23T12:10:07;15.10;99.90
44763;DHT22;30483;49.576;6.036;2024-03-23T12:12:33;15.20;99.90
44763;DHT22;30483;49.576;6.036;2024-03-23T12:15:07;15.20;99.90
44763;DHT22;30483;49.576;6.036;2024-03-23T12:17:34;15.20;99.90
44763;DHT22;30483;49.576;6.036;2024-03-23T12:20:03;15.20;99.90
44763;DHT22;30483;49.576;6.036;2024-03-23T12:22:29;15.20;99.90
44763;DHT22;30483;49.576;6.036;2024-03-23T12:24:57;15.30;99.90
44763;DHT22;30483;49.576;6.036;2024-03-23T12:27:23;15.30;99.90
44763;DHT22;30483;49.576;6.036;2024-03-23T12:29:49;15.30;99.90
44763;DHT22;30483;49.576;6.036;2024-03-23T12:32:14;15.40;99.90
44763;DHT22;30483;49.576;6.036;2024-03-23T12:34:41;15.40;99.90
44763;DHT22;30483;49.576;6.036;2024-03-23T12:37:07;15.40;99.90
44763;DHT22;30483;49.576;6.036;2024-03-23T12:39:34;15.40;99.90
44763;DHT22;30483;49.576;6.036;2024-03-23T12:42:01;15.40;99.90
44763;DHT22;30483;49.576;6.036;2024-03-23T12:44:28;15.40;99.90
44763;DHT22;30483;49.576;6.036;2024-03-23T12:46:54;15.40;99.90
44763;DHT22;30483;49.576;6.036;2024-03-23T12:49:19;15.40;99.90
44763;DHT22;30483;49.576;6.036;2024-03-23T12:51:55;15.40;99.90
44763;DHT22;30483;49.576;6.036;2024-03-23T12:54:22;15.40;99.90
44763;DHT22;30483;49.576;6.036;2024-03-23T12:56:48;15.40;99.90
44763;DHT22;30483;49.576;6.036;2024-03-23T12:59:14;15.40;99.90
44763;DHT22;30483;49.576;6.036;2024-03-23T13:01:40;15.30;99.90
44763;DHT22;30483;49.576;6.036;2024-03-23T13:04:06;15.30;99.90
44763;DHT22;30483;49.576;6.036;2024-03-23T13:06:31;15.30;99.90
44763;DHT22;30483;49.576;6.036;2024-03-23T13:09:03;15.40;99.90
44763;DHT22;30483;49.576;6.036;2024-03-23T13:11:30;15.30;99.90
44763;DHT22;30483;49.576;6.036;2024-03-23T13:13:55;15.30;99.90
44763;DHT22;30483;49.576;6.036;2024-03-23T13:16:21;15.30;99.90
44763;DHT22;30483;49.576;6.036;2024-03-23T13:18:47;15.20;99.90
44763;DHT22;30483;49.576;6.036;2024-03-23T13:21:13;15.20;99.90
44763;DHT22;30483;49.576;6.036;2024-03-23T13:23:39;15.30;99.90
44763;DHT22;30483;49.576;6.036;2024-03-23T13:26:07;15.30;99.90
44763;DHT22;30483;49.576;6.036;2024-03-23T13:28:33;15.30;99.90
44763;DHT22;30483;49.576;6.036;2024-03-23T13:30:59;15.40;99.90
44763;DHT22;30483;49.576;6.036;2024-03-23T13:33:32;15.30;99.90
44763;DHT22;30483;49.576;6.036;2024-03-23T13:35:58;15.30;99.90
44763;DHT22;30483;49.576;6.036;2024-03-23T13:38:23;15.30;99.90
44763;DHT22;30483;49.576;6.036;2024-03-23T13:40:57;15.30;99.90
44763;DHT22;30483;49.576;6.036;2024-03-23T13:43:24;15.20;99.90
44763;DHT22;30483;49.576;6.036;2024-03-23T13:45:54;14.80;99.90
44763;DHT22;30483;49.576;6.036;2024-03-23T13:48:25;14.60;99.90
44763;DHT22;30483;49.576;6.036;2024-03-23T13:51:00;14.40;99.90
44763;DHT22;30483;49.576;6.036;2024-03-23T13:53:26;14.20;99.90
44763;DHT22;30483;49.576;6.036;2024-03-23T13:55:52;14.80;99.90
44763;DHT22;30483;49.576;6.036;2024-03-23T13:58:18;15.20;99.90
44763;DHT22;30483;49.576;6.036;2024-03-23T14:03:11;15.40;99.90
44763;DHT22;30483;49.576;6.036;2024-03-23T14:05:37;15.50;99.90
44763;DHT22;30483;49.576;6.036;2024-03-23T14:08:07;15.50;99.90
44763;DHT22;30483;49.576;6.036;2024-03-23T14:10:33;15.50;99.90
44763;DHT22;30483;49.576;6.036;2024-03-23T14:12:58;15.50;99.90
44763;DHT22;30483;49.576;6.036;2024-03-23T14:15:27;15.60;99.90
44763;DHT22;30483;49.576;6.036;2024-03-23T14:17:53;15.70;99.90
44763;DHT22;30483;49.576;6.036;2024-03-23T14:20:20;15.80;99.90
44763;DHT22;30483;49.576;6.036;2024-03-23T14:22:46;15.90;99.90
44763;DHT22;30483;49.576;6.036;2024-03-23T14:25:12;16.00;99.90
44763;DHT22;30483;49.576;6.036;2024-03-23T14:27:38;16.00;99.90
44763;DHT22;30483;49.576;6.036;2024-03-23T14:30:04;16.10;99.90
44763;DHT22;30483;49.576;6.036;2024-03-23T14:32:33;16.10;99.90
44763;DHT22;30483;49.576;6.036;2024-03-23T14:35:06;16.20;99.90
44763;DHT22;30483;49.576;6.036;2024-03-23T14:37:38;16.20;99.90
44763;DHT22;30483;49.576;6.036;2024-03-23T14:40:04;16.20;99.90
44763;DHT22;30483;49.576;6.036;2024-03-23T14:42:30;16.20;99.90
44763;DHT22;30483;49.576;6.036;2024-03-23T14:44:59;16.30;99.90
44763;DHT22;30483;49.576;6.036;2024-03-23T14:47:25;16.30;99.90
44763;DHT22;30483;49.576;6.036;2024-03-23T14:49:50;16.40;99.90
44763;DHT22;30483;49.576;6.036;2024-03-23T14:52:17;16.30;99.90
44763;DHT22;30483;49.576;6.036;2024-03-23T14:54:44;15.50;99.90
44763;DHT22;30483;49.576;6.036;2024-03-23T14:57:09;15.10;99.90
44763;DHT22;30483;49.576;6.036;2024-03-23T14:59:35;15.00;99.90
44763;DHT22;30483;49.576;6.036;2024-03-23T15:02:04;15.10;99.90
44763;DHT22;30483;49.576;6.036;2024-03-23T15:04:29;14.40;99.90
44763;DHT22;30483;49.576;6.036;2024-03-23T15:06:55;13.90;99.90
44763;DHT22;30483;49.576;6.036;2024-03-23T15:09:21;13.30;99.90
44763;DHT22;30483;49.576;6.036;2024-03-23T15:11:46;12.70;99.90
44763;DHT22;30483;49.576;6.036;2024-03-23T15:14:12;12.70;99.90
44763;DHT22;30483;49.576;6.036;2024-03-23T15:16:37;12.40;99.90
44763;DHT22;30483;49.576;6.036;2024-03-23T15:19:03;12.20;99.90
44763;DHT22;30483;49.576;6.036;2024-03-23T15:21:31;12.00;99.90
44763;DHT22;30483;49.576;6.036;2024-03-23T15:48:27;12.10;99.90
44763;DHT22;30483;49.576;6.036;2024-03-23T15:50:53;13.50;99.90
44763;DHT22;30483;49.576;6.036;2024-03-23T15:53:20;13.70;99.90
44763;DHT22;30483;49.576;6.036;2024-03-23T15:55:52;13.90;99.90
44763;DHT22;30483;49.576;6.036;2024-03-23T15:58:18;14.00;99.90
44763;DHT22;30483;49.576;6.036;2024-03-23T16:00:43;14.10;99.90
44763;DHT22;30483;49.576;6.036;2024-03-23T16:03:09;14.10;99.90
44763;DHT22;30483;49.576;6.036;2024-03-23T16:05:35;14.20;99.90
44763;DHT22;30483;49.576;6.036;2024-03-23T16:08:00;14.20;99.90
44763;DHT22;30483;49.576;6.036;2024-03-23T16:10:26;14.20;99.90
44763;DHT22;30483;49.576;6.036;2024-03-23T16:12:51;14.30;99.90
44763;DHT22;30483;49.576;6.036;2024-03-23T16:15:17;14.40;99.90
44763;DHT22;30483;49.576;6.036;2024-03-23T16:17:43;14.40;99.90
44763;DHT22;30483;49.576;6.036;2024-03-23T16:20:09;14.40;99.90
44763;DHT22;30483;49.576;6.036;2024-03-23T16:22:35;14.50;99.90
44763;DHT22;30483;49.576;6.036;2024-03-23T16:25:00;14.50;99.90
44763;DHT22;30483;49.576;6.036;2024-03-23T16:27:26;14.50;99.90
44763;DHT22;30483;49.576;6.036;2024-03-23T16:29:52;14.50;99.90
44763;DHT22;30483;49.576;6.036;2024-03-23T16:32:51;14.60;99.90
44763;DHT22;30483;49.576;6.036;2024-03-23T16:36:15;14.50;99.90
44763;DHT22;30483;49.576;6.036;2024-03-23T16:38:45;14.60;99.90
44763;DHT22;30483;49.576;6.036;2024-03-23T16:41:13;14.60;99.90
44763;DHT22;30483;49.576;6.036;2024-03-23T16:43:41;14.60;99.90
44763;DHT22;30483;49.576;6.036;2024-03-23T16:46:09;14.60;99.90
44763;DHT22;30483;49.576;6.036;2024-03-23T16:48:39;14.60;99.90
44763;DHT22;30483;49.576;6.036;2024-03-23T16:51:05;14.60;99.90
44763;DHT22;30483;49.576;6.036;2024-03-23T16:53:32;14.60;99.90
44763;DHT22;30483;49.576;6.036;2024-03-23T16:55:59;14.70;99.90
44763;DHT22;30483;49.576;6.036;2024-03-23T16:58:26;14.70;99.90
44763;DHT22;30483;49.576;6.036;2024-03-23T17:00:51;14.70;99.90
44763;DHT22;30483;49.576;6.036;2024-03-23T17:03:19;14.70;99.90
44763;DHT22;30483;49.576;6.036;2024-03-23T17:05:48;14.70;99.90
44763;DHT22;30483;49.576;6.036;2024-03-23T17:08:14;14.70;99.90
44763;DHT22;30483;49.576;6.036;2024-03-23T17:10:40;14.70;99.90
44763;DHT22;30483;49.576;6.036;2024-03-23T17:13:06;14.80;99.90
44763;DHT22;30483;49.576;6.036;2024-03-23T17:15:32;14.80;99.90
44763;DHT22;30483;49.576;6.036;2024-03-23T17:17:58;14.80;99.90
44763;DHT22;30483;49.576;6.036;2024-03-23T17:20:23;14.80;99.90
44763;DHT22;30483;49.576;6.036;2024-03-23T17:22:55;14.80;99.90
44763;DHT22;30483;49.576;6.036;2024-03-23T17:25:22;14.80;99.90
44763;DHT22;30483;49.576;6.036;2024-03-23T17:27:48;14.80;99.90
44763;DHT22;30483;49.576;6.036;2024-03-23T17:30:14;14.80;99.90
44763;DHT22;30483;49.576;6.036;2024-03-23T17:32:43;14.90;99.90
44763;DHT22;30483;49.576;6.036;2024-03-23T17:35:13;14.80;99.90
44763;DHT22;30483;49.576;6.036;2024-03-23T17:37:39;14.90;99.90
44763;DHT22;30483;49.576;6.036;2024-03-23T17:40:06;14.90;99.90
44763;DHT22;30483;49.576;6.036;2024-03-23T17:42:35;14.90;99.90
44763;DHT22;30483;49.576;6.036;2024-03-23T17:45:01;14.90;99.90
44763;DHT22;30483;49.576;6.036;2024-03-23T17:47:27;15.00;99.90
44763;DHT22;30483;49.576;6.036;2024-03-23T17:49:53;15.00;99.90
44763;DHT22;30483;49.576;6.036;2024-03-23T17:52:18;15.00;99.90
44763;DHT22;30483;49.576;6.036;2024-03-23T17:54:44;15.00;99.90
44763;DHT22;30483;49.576;6.036;2024-03-23T17:57:10;15.00;99.90
44763;DHT22;30483;49.576;6.036;2024-03-23T17:59:36;14.80;99.90
44763;DHT22;30483;49.576;6.036;2024-03-23T18:02:01;14.50;99.90
44763;DHT22;30483;49.576;6.036;2024-03-23T18:04:27;14.50;99.90
44763;DHT22;30483;49.576;6.036;2024-03-23T18:06:53;14.60;99.90
44763;DHT22;30483;49.576;6.036;2024-03-23T18:09:19;14.60;99.90
44763;DHT22;30483;49.576;6.036;2024-03-23T18:11:45;14.70;99.90
44763;DHT22;30483;49.576;6.036;2024-03-23T18:14:11;14.70;99.90
44763;DHT22;30483;49.576;6.036;2024-03-23T18:16:37;14.80;99.90
44763;DHT22;30483;49.576;6.036;2024-03-23T18:19:02;14.80;99.90
44763;DHT22;30483;49.576;6.036;2024-03-23T18:21:28;14.80;99.90
44763;DHT22;30483;49.576;6.036;2024-03-23T18:23:54;14.80;99.90
44763;DHT22;30483;49.576;6.036;2024-03-23T18:26:19;14.90;99.90
44763;DHT22;30483;49.576;6.036;2024-03-23T18:28:49;14.80;99.90
44763;DHT22;30483;49.576;6.036;2024-03-23T18:31:18;14.90;99.90
44763;DHT22;30483;49.576;6.036;2024-03-23T18:33:45;14.80;99.90
44763;DHT22;30483;49.576;6.036;2024-03-23T18:36:10;14.80;99.90
44763;DHT22;30483;49.576;6.036;2024-03-23T18:38:37;14.80;99.90
44763;DHT22;30483;49.576;6.036;2024-03-23T18:41:03;14.80;99.90
44763;DHT22;30483;49.576;6.036;2024-03-23T18:43:29;14.80;99.90
44763;DHT22;30483;49.576;6.036;2024-03-23T19:06:29;14.50;99.90
44763;DHT22;30483;49.576;6.036;2024-03-23T19:38:37;14.50;99.90
44763;DHT22;30483;49.576;6.036;2024-03-23T19:41:03;14.60;99.90
44763;DHT22;30483;49.576;6.036;2024-03-23T19:43:29;14.50;99.90
44763;DHT22;30483;49.576;6.036;2024-03-23T19:45:55;14.50;99.90
44763;DHT22;30483;49.576;6.036;2024-03-23T19:48:22;14.60;99.90
44763;DHT22;30483;49.576;6.036;2024-03-23T19:50:55;14.60;99.90
44763;DHT22;30483;49.576;6.036;2024-03-23T19:53:20;14.60;99.90
44763;DHT22;30483;49.576;6.036;2024-03-23T19:55:55;14.60;99.90
44763;DHT22;30483;49.576;6.036;2024-03-23T19:58:21;14.60;99.90
44763;DHT22;30483;49.576;6.036;2024-03-23T20:00:47;14.60;99.90
44763;DHT22;30483;49.576;6.036;2024-03-23T20:03:13;14.60;99.90
44763;DHT22;30483;49.576;6.036;2024-03-23T20:05:38;14.60;99.90
44763;DHT22;30483;49.576;6.036;2024-03-23T20:08:04;14.60;99.90
44763;DHT22;30483;49.576;6.036;2024-03-23T20:10:31;14.60;99.90
44763;DHT22;30483;49.576;6.036;2024-03-23T20:12:58;14.60;99.90
44763;DHT22;30483;49.576;6.036;2024-03-23T20:15:23;14.60;99.90
44763;DHT22;30483;49.576;6.036;2024-03-23T20:17:49;14.60;99.90
44763;DHT22;30483;49.576;6.036;2024-03-23T20:20:14;14.60;99.90
44763;DHT22;30483;49.576;6.036;2024-03-23T20:22:40;14.60;99.90
44763;DHT22;30483;49.576;6.036;2024-03-23T20:25:06;14.60;99.90
44763;DHT22;30483;49.576;6.036;2024-03-23T20:27:32;14.60;99.90
44763;DHT22;30483;49.576;6.036;2024-03-23T20:29:58;14.60;99.90
44763;DHT22;30483;49.576;6.036;2024-03-23T20:32:24;14.60;99.90
44763;DHT22;30483;49.576;6.036;2024-03-23T20:34:49;14.60;99.90
44763;DHT22;30483;49.576;6.036;2024-03-23T20:37:15;14.60;99.90
44763;DHT22;30483;49.576;6.036;2024-03-23T20:39:40;14.50;99.90
44763;DHT22;30483;49.576;6.036;2024-03-23T20:42:06;14.60;99.90
44763;DHT22;30483;49.576;6.036;2024-03-23T20:44:32;14.60;99.90
44763;DHT22;30483;49.576;6.036;2024-03-23T20:46:58;14.60;99.90
44763;DHT22;30483;49.576;6.036;2024-03-23T20:49:23;14.60;99.90
44763;DHT22;30483;49.576;6.036;2024-03-23T20:51:49;14.60;99.90
44763;DHT22;30483;49.576;6.036;2024-03-23T20:54:15;14.60;99.90
44763;DHT22;30483;49.576;6.036;2024-03-23T20:56:41;14.60;99.90
44763;DHT22;30483;49.576;6.036;2024-03-23T20:59:07;14.60;99.90
44763;DHT22;30483;49.576;6.036;2024-03-23T21:01:32;14.50;99.90
44763;DHT22;30483;49.576;6.036;2024-03-23T21:03:59;14.60;99.90
44763;DHT22;30483;49.576;6.036;2024-03-23T21:06:24;14.60;99.90
44763;DHT22;30483;49.576;6.036;2024-03-23T21:08:50;14.50;99.90
44763;DHT22;30483;49.576;6.036;2024-03-23T21:11:16;14.60;99.90
44763;DHT22;30483;49.576;6.036;2024-03-23T21:13:41;14.60;99.90
44763;DHT22;30483;49.576;6.036;2024-03-23T21:16:07;14.60;99.90
44763;DHT22;30483;49.576;6.036;2024-03-23T21:18:33;14.60;99.90
44763;DHT22;30483;49.576;6.036;2024-03-23T21:21:02;14.60;99.90
44763;DHT22;30483;49.576;6.036;2024-03-23T21:23:29;14.60;99.90
44763;DHT22;30483;49.576;6.036;2024-03-23T21:26:01;14.60;99.90
44763;DHT22;30483;49.576;6.036;2024-03-23T21:28:27;14.60;99.90
44763;DHT22;30483;49.576;6.036;2024-03-23T21:30:54;14.60;99.90
44763;DHT22;30483;49.576;6.036;2024-03-23T21:33:20;14.60;99.90
44763;DHT22;30483;49.576;6.036;2024-03-23T21:35:56;14.60;99.90
44763;DHT22;30483;49.576;6.036;2024-03-23T21:38:22;14.60;99.90